Time;durP1;ratioP1;P1;durP2;ratioP2;P2;SDS_P1;SDS_P2;PMS_P1;PMS_P2;Temp;Humidity;BMP_temperature;BMP_pressure;BME280_temperature;BME280_humidity;BME280_pressure;Samples;Min_cycle;Max_cycle;Signal;HPM_P1;HPM_P2
2023/03/31 00:01:05;;;;;;;11.20;6.83;;;;;;;12.93;47.67;94601.72;5032150;28;20195;-50
2023/03/31 00:03:37;;;;;;;10.87;6.80;;;;;;;12.89;47.61;94602.97;5030295;28;20192;-48
2023/03/31 00:06:05;;;;;;;13.60;6.73;;;;;;;12.76;47.72;94573.41;5030891;28;20218;-51
2023/03/31 00:08:35;;;;;;;11.80;7.03;;;;;;;12.89;47.86;94601.22;5032812;28;20266;-49
2023/03/31 00:11:03;;;;;;;7.97;6.43;;;;;;;12.72;47.87;94571.31;5032034;28;20303;-56
2023/03/31 00:13:30;;;;;;;11.17;7.80;;;;;;;12.84;47.91;94588.03;5032145;28;20192;-50
2023/03/31 00:15:59;;;;;;;15.83;7.37;;;;;;;12.80;48.12;94594.44;5011996;28;20221;-54
2023/03/31 00:18:26;;;;;;;14.00;7.97;;;;;;;12.82;47.95;94592.50;5021879;28;20742;-49
2023/03/31 00:20:56;;;;;;;12.83;8.20;;;;;;;12.81;47.93;94589.13;5031993;28;20242;-48
2023/03/31 00:23:26;;;;;;;11.97;6.60;;;;;;;12.77;47.91;94574.22;5032208;28;20187;-48
2023/03/31 00:25:53;;;;;;;11.97;7.63;;;;;;;12.83;48.03;94588.22;5031746;28;20667;-50
2023/03/31 00:28:20;;;;;;;11.03;7.40;;;;;;;12.83;48.01;94588.22;5032000;28;20667;-49
2023/03/31 00:30:47;;;;;;;10.17;7.00;;;;;;;12.84;48.05;94593.19;5031639;28;20282;-49
2023/03/31 00:33:14;;;;;;;13.57;7.13;;;;;;;12.85;47.97;94591.41;5021658;28;20180;-49
2023/03/31 00:35:42;;;;;;;10.73;7.70;;;;;;;12.85;47.90;94579.38;5012161;28;20195;-46
2023/03/31 00:38:12;;;;;;;10.40;6.53;;;;;;;12.87;48.14;94581.81;5011705;28;20236;-48
2023/03/31 00:40:46;;;;;;;12.40;7.50;;;;;;;12.87;48.02;94574.91;5012152;28;20196;-48
2023/03/31 00:43:27;;;;;;;9.20;6.83;;;;;;;12.85;48.09;94561.41;5011723;28;20291;-49
2023/03/31 00:45:55;;;;;;;13.03;6.97;;;;;;;12.85;47.74;94563.97;5012138;28;20263;-52
2023/03/31 00:48:23;;;;;;;8.87;7.20;;;;;;;12.94;47.97;94567.38;5022453;28;20250;-48
2023/03/31 00:50:54;;;;;;;11.60;6.57;;;;;;;12.96;48.15;94568.84;5012861;28;20722;-50
2023/03/31 00:53:26;;;;;;;9.00;6.80;;;;;;;12.94;47.89;94547.66;5011763;28;20264;-50
2023/03/31 00:55:57;;;;;;;10.77;6.90;;;;;;;12.96;48.13;94552.66;5011097;28;20200;-49
2023/03/31 00:58:27;;;;;;;10.37;6.87;;;;;;;13.02;47.92;94557.16;5017783;28;20212;-51
2023/03/31 01:00:56;;;;;;;12.13;7.20;;;;;;;13.03;47.78;94549.28;5030648;28;20223;-48
2023/03/31 01:03:24;;;;;;;12.17;7.33;;;;;;;13.01;47.75;94540.16;5015873;28;20258;-50
2023/03/31 01:05:54;;;;;;;10.37;6.53;;;;;;;12.87;47.84;94523.59;5011656;28;20529;-49
2023/03/31 01:08:25;;;;;;;9.87;7.00;;;;;;;13.09;47.95;94544.50;5011253;28;20204;-48
2023/03/31 01:10:55;;;;;;;11.73;6.67;;;;;;;13.12;47.96;94541.59;5011620;28;20189;-49
2023/03/31 01:13:24;;;;;;;10.83;6.73;;;;;;;13.12;48.12;94544.16;5010950;28;20575;-48
2023/03/31 01:15:50;;;;;;;8.63;6.20;;;;;;;13.15;47.66;94554.94;5011593;28;20188;-55
2023/03/31 01:18:20;;;;;;;11.60;6.93;;;;;;;13.13;47.93;94541.47;5011188;28;20307;-50
2023/03/31 01:21:06;;;;;;;12.97;7.07;;;;;;;13.17;47.94;94537.63;5010670;28;20200;-47
2023/03/31 01:24:36;;;;;;;9.47;6.30;;;;;;;13.19;47.62;94550.28;5011313;28;20578;-49
2023/03/31 01:27:30;;;;;;;10.83;6.77;;;;;;;13.20;48.18;94560.41;4950374;29;20595;-50
2023/03/31 01:30:22;;;;;;;12.70;6.70;;;;;;;13.19;48.03;94551.09;4929340;29;20601;-50
2023/03/31 01:33:19;;;;;;;11.97;6.63;;;;;;;13.22;48.18;94557.69;4945161;29;20212;-53
2023/03/31 01:36:08;;;;;;;10.77;6.23;;;;;;;13.23;47.95;94552.41;4893131;29;20296;-50
2023/03/31 01:39:07;;;;;;;11.10;6.20;;;;;;;13.24;47.98;94559.16;4893611;29;20224;-52
2023/03/31 01:41:49;;;;;;;8.33;6.40;;;;;;;13.26;48.08;94579.56;4892821;29;20299;-50
2023/03/31 01:44:28;;;;;;;9.60;6.80;;;;;;;13.22;47.97;94568.78;4893078;29;20200;-49
2023/03/31 01:46:58;;;;;;;11.20;6.80;;;;;;;13.14;48.04;94550.78;4890826;29;20629;-51
2023/03/31 01:49:32;;;;;;;8.70;5.77;;;;;;;13.20;47.95;94559.59;4893353;29;20197;-51
2023/03/31 01:52:04;;;;;;;8.70;6.37;;;;;;;13.32;47.94;94580.69;4893122;29;20204;-48
2023/03/31 01:54:39;;;;;;;10.47;6.30;;;;;;;13.11;48.12;94551.06;4892985;29;20705;-48
2023/03/31 01:57:14;;;;;;;12.67;6.50;;;;;;;13.33;47.89;94582.28;4893004;29;20282;-48
2023/03/31 01:59:49;;;;;;;11.83;6.63;;;;;;;13.33;48.02;94585.66;4897826;29;20223;-49
2023/03/31 02:02:20;;;;;;;11.43;7.03;;;;;;;13.34;48.09;94581.31;4949353;29;20727;-46
2023/03/31 02:04:51;;;;;;;10.70;6.70;;;;;;;13.29;48.13;94585.16;4949701;29;20737;-48
2023/03/31 02:07:22;;;;;;;11.10;6.50;;;;;;;13.34;47.99;94586.47;4949402;29;20900;-48
2023/03/31 02:09:53;;;;;;;8.30;5.93;;;;;;;13.37;48.05;94593.88;4949378;29;20190;-49
2023/03/31 02:12:24;;;;;;;8.73;6.20;;;;;;;13.30;47.93;94576.53;4965847;28;20196;-54
2023/03/31 02:14:54;;;;;;;10.03;6.87;;;;;;;13.34;47.92;94584.69;5030125;28;20187;-48
2023/03/31 02:17:29;;;;;;;11.33;6.63;;;;;;;13.38;47.77;94600.59;5012998;28;20247;-51
2023/03/31 02:19:58;;;;;;;11.37;6.70;;;;;;;13.21;47.93;94566.34;5009714;28;20226;-48
2023/03/31 02:22:27;;;;;;;7.90;6.50;;;;;;;13.42;47.87;94607.03;5010214;28;20228;-48
2023/03/31 02:24:55;;;;;;;8.87;6.20;;;;;;;13.41;48.13;94610.56;5010068;28;20192;-49
2023/03/31 02:27:26;;;;;;;12.83;6.77;;;;;;;13.44;48.19;94625.69;5010066;28;20200;-51
2023/03/31 02:29:55;;;;;;;10.47;6.13;;;;;;;13.44;48.08;94628.25;5013837;28;20183;-50
2023/03/31 02:32:24;;;;;;;11.03;6.80;;;;;;;13.44;48.49;94615.41;5029844;28;20195;-50
2023/03/31 02:34:51;;;;;;;11.73;6.17;;;;;;;13.42;48.43;94620.69;5021186;28;20201;-48
2023/03/31 02:37:18;;;;;;;8.87;6.23;;;;;;;13.46;48.76;94619.41;5010210;28;20185;-51
2023/03/31 02:39:48;;;;;;;8.47;5.67;;;;;;;13.48;48.94;94634.69;5020440;28;20207;-47
2023/03/31 02:42:15;;;;;;;8.97;5.23;;;;;;;13.49;48.98;94624.25;5029581;28;20250;-49
2023/03/31 02:44:44;;;;;;;6.93;4.70;;;;;;;13.50;48.89;94623.28;5024462;28;20184;-48
2023/03/31 02:47:14;;;;;;;6.27;5.27;;;;;;;13.53;49.28;94635.00;5009614;28;20207;-50
2023/03/31 02:49:44;;;;;;;7.67;4.67;;;;;;;13.52;49.54;94621.38;5009922;28;20570;-51
2023/03/31 02:52:31;;;;;;;9.17;4.93;;;;;;;13.53;49.59;94604.19;5010074;28;20256;-47
2023/03/31 02:55:24;;;;;;;6.07;4.60;;;;;;;13.50;49.70;94600.16;5009675;28;20250;-49
2023/03/31 02:58:17;;;;;;;8.57;4.50;;;;;;;13.34;49.75;94568.47;5009824;28;20196;-49
2023/03/31 03:01:00;;;;;;;5.30;4.03;;;;;;;13.51;50.04;94582.97;5009845;28;20628;-48
2023/03/31 03:03:39;;;;;;;9.30;4.93;;;;;;;13.49;50.05;94580.56;5009610;28;20184;-49
2023/03/31 03:06:21;;;;;;;9.90;4.70;;;;;;;13.47;49.93;94573.97;5009325;28;20542;-48
2023/03/31 03:09:05;;;;;;;6.40;4.60;;;;;;;13.48;50.27;94573.03;5011317;28;20202;-48
2023/03/31 03:11:45;;;;;;;7.77;4.10;;;;;;;13.50;50.21;94576.22;5028937;28;20257;-47
2023/03/31 03:14:22;;;;;;;7.00;3.90;;;;;;;13.46;50.22;94554.38;5028905;28;20187;-50
2023/03/31 03:16:57;;;;;;;6.90;4.60;;;;;;;13.50;50.41;94556.47;5028830;28;20621;-49
2023/03/31 03:19:24;;;;;;;4.60;3.70;;;;;;;13.50;50.01;94550.53;5028738;28;20222;-50
2023/03/31 03:21:51;;;;;;;5.23;3.63;;;;;;;13.52;50.35;94553.75;5029129;28;20261;-50
2023/03/31 03:24:18;;;;;;;5.73;4.27;;;;;;;13.45;50.24;94547.66;5028701;28;20214;-49
2023/03/31 03:26:45;;;;;;;7.60;3.90;;;;;;;13.51;50.44;94555.53;5028947;28;20246;-51
2023/03/31 03:29:13;;;;;;;5.20;3.50;;;;;;;13.52;50.47;94557.13;5028106;28;20644;-49
2023/03/31 03:31:40;;;;;;;6.70;3.73;;;;;;;13.53;50.39;94557.94;5028806;28;20184;-50
2023/03/31 03:34:09;;;;;;;4.83;3.60;;;;;;;13.43;50.62;94536.75;5011041;28;20687;-50
2023/03/31 03:36:36;;;;;;;4.70;3.43;;;;;;;13.55;50.50;94540.59;5009124;28;20287;-55
2023/03/31 03:39:03;;;;;;;4.30;3.57;;;;;;;13.55;50.60;94545.72;5009697;28;20653;-48
2023/03/31 03:41:32;;;;;;;3.40;3.10;;;;;;;13.53;50.68;94535.59;5009746;28;20639;-49
2023/03/31 03:43:58;;;;;;;5.93;3.47;;;;;;;13.59;50.49;94539.28;5021611;28;20195;-49
2023/03/31 03:46:25;;;;;;;4.00;3.33;;;;;;;13.60;50.56;94538.34;5029074;28;20187;-49
2023/03/31 03:48:52;;;;;;;4.53;3.47;;;;;;;13.60;50.63;94534.97;5028797;28;20249;-51
2023/03/31 03:51:20;;;;;;;5.07;3.73;;;;;;;13.62;50.50;94527.91;5018386;28;20188;-50
2023/03/31 03:53:47;;;;;;;4.70;3.10;;;;;;;13.40;50.47;94499.31;5009208;28;20231;-49
2023/03/31 03:56:14;;;;;;;4.13;3.00;;;;;;;13.65;50.79;94535.31;5009138;28;20208;-49
2023/03/31 03:58:41;;;;;;;5.43;3.37;;;;;;;13.42;50.67;94502.50;5008615;28;20199;-48
2023/03/31 04:01:08;;;;;;;6.70;3.40;;;;;;;13.65;50.49;94532.75;5009038;28;20660;-48
2023/03/31 04:03:34;;;;;;;6.50;3.53;;;;;;;13.69;50.50;94539.16;5008974;28;20215;-49
2023/03/31 04:06:01;;;;;;;3.47;2.80;;;;;;;13.70;50.55;94549.28;5008945;28;20195;-54
2023/03/31 04:08:29;;;;;;;5.27;3.07;;;;;;;13.72;50.59;94551.66;5008780;28;20728;-52
2023/03/31 04:10:56;;;;;;;4.70;3.17;;;;;;;13.72;50.57;94552.47;5017471;28;20203;-53
2023/03/31 04:13:23;;;;;;;5.13;3.10;;;;;;;13.72;50.58;94555.03;5008397;28;20262;-48
2023/03/31 04:15:50;;;;;;;5.17;3.30;;;;;;;13.74;50.66;94560.03;5009260;28;20200;-47
2023/03/31 04:18:21;;;;;;;4.73;2.80;;;;;;;13.74;50.66;94555.69;5008943;28;20196;-49
2023/03/31 04:20:53;;;;;;;5.77;3.03;;;;;;;13.72;50.66;94549.09;5015491;28;20715;-46
2023/03/31 04:23:22;;;;;;;4.90;2.90;;;;;;;13.76;50.80;94552.97;5025227;28;20253;-50
2023/03/31 04:25:51;;;;;;;3.83;3.07;;;;;;;13.77;50.57;94563.09;5027392;28;20207;-47
2023/03/31 04:28:18;;;;;;;3.93;3.00;;;;;;;13.77;50.67;94562.28;5025988;28;20254;-48
2023/03/31 04:30:45;;;;;;;6.53;3.33;;;;;;;13.77;50.87;94560.53;5016210;28;20266;-52
2023/03/31 04:33:14;;;;;;;4.63;2.90;;;;;;;13.78;50.80;94556.19;5028421;28;20184;-49
2023/03/31 04:35:51;;;;;;;2.80;2.47;;;;;;;13.65;50.65;94536.09;5029309;28;20219;-50
2023/03/31 04:38:19;;;;;;;3.87;3.00;;;;;;;13.72;50.94;94529.34;5031843;28;20214;-50
2023/03/31 04:40:47;;;;;;;3.20;2.50;;;;;;;14.27;71.61;94543.28;5029809;28;20780;-51
2023/03/31 04:43:15;;;;;;;3.83;2.40;;;;;;;14.89;70.27;94535.72;5014898;28;20635;-49
2023/03/31 04:45:43;;;;;;;4.57;2.80;;;;;;;15.40;68.21;94524.97;5011462;28;20196;-50
2023/03/31 04:48:10;;;;;;;5.53;3.03;;;;;;;15.90;66.67;94539.16;5020604;28;20350;-48
2023/03/31 04:50:37;;;;;;;6.67;2.70;;;;;;;16.42;65.29;94540.91;5025870;28;20211;-48
2023/03/31 04:53:05;;;;;;;2.17;2.00;;;;;;;16.88;64.24;94539.00;5022670;28;20224;-48
2023/03/31 04:55:32;;;;;;;3.63;2.50;;;;;;;17.12;63.30;94501.69;5026981;28;20635;-49
2023/03/31 04:57:59;;;;;;;3.27;2.60;;;;;;;17.52;62.24;94496.91;5012124;28;20263;-48
2023/03/31 05:00:27;;;;;;;2.83;2.60;;;;;;;17.95;61.03;94530.53;5018458;28;20227;-49
2023/03/31 05:02:54;;;;;;;3.37;2.90;;;;;;;18.07;59.96;94526.47;5021663;28;20227;-48
2023/03/31 05:05:21;;;;;;;5.63;2.70;;;;;;;18.01;59.06;94520.25;5014518;28;20183;-48
2023/03/31 05:07:48;;;;;;;7.47;2.50;;;;;;;17.86;58.27;94510.97;5023429;28;20626;-48
2023/03/31 05:10:15;;;;;;;4.33;2.40;;;;;;;17.74;57.42;94511.47;5018766;28;20188;-51
2023/03/31 05:12:42;;;;;;;4.90;2.43;;;;;;;17.54;56.83;94505.31;5028280;28;20200;-48
2023/03/31 05:15:09;;;;;;;6.20;2.70;;;;;;;17.33;56.44;94487.19;5024410;28;20648;-47
2023/03/31 05:17:38;;;;;;;5.03;2.43;;;;;;;17.29;56.09;94495.31;5015515;28;20625;-47
2023/03/31 05:20:07;;;;;;;3.47;2.60;;;;;;;17.20;55.83;94499.00;5016866;28;20230;-48
2023/03/31 05:22:35;;;;;;;10.63;2.77;;;;;;;17.11;55.32;94496.72;5028228;28;20194;-48
2023/03/31 05:25:02;;;;;;;5.67;2.80;;;;;;;17.07;55.10;94500.66;5020498;28;20191;-48
2023/03/31 05:27:30;;;;;;;4.27;2.60;;;;;;;16.89;54.93;94476.00;5020174;28;20195;-47
2023/03/31 05:29:57;;;;;;;6.53;3.17;;;;;;;16.99;54.76;94489.44;5027361;28;20683;-47
2023/03/31 05:32:24;;;;;;;4.83;3.40;;;;;;;17.06;54.27;94499.84;5027307;28;20180;-47
2023/03/31 05:34:55;;;;;;;6.77;3.07;;;;;;;17.08;54.04;94490.13;5023526;28;20254;-47
2023/03/31 05:37:24;;;;;;;7.20;3.27;;;;;;;17.11;53.78;94494.94;5023554;28;20643;-49
2023/03/31 05:39:51;;;;;;;3.40;3.07;;;;;;;17.20;53.43;94491.25;5021993;28;20286;-47
2023/03/31 05:42:17;;;;;;;5.07;3.30;;;;;;;17.26;53.08;94487.13;5024027;28;20200;-49
2023/03/31 05:44:44;;;;;;;9.30;3.03;;;;;;;17.35;53.13;94490.38;5028656;28;20188;-48
2023/03/31 05:47:12;;;;;;;6.07;3.10;;;;;;;17.45;52.53;94490.91;5021753;28;20197;-47
2023/03/31 05:49:39;;;;;;;6.23;3.17;;;;;;;17.59;52.32;94500.38;5030451;28;20206;-47
2023/03/31 05:52:08;;;;;;;4.70;2.87;;;;;;;17.74;52.06;94495.94;5016350;28;20199;-48
2023/03/31 05:54:35;;;;;;;5.03;2.73;;;;;;;17.90;51.63;94492.28;5014661;28;20733;-49
2023/03/31 05:57:03;;;;;;;5.47;3.20;;;;;;;18.12;51.54;94487.06;5016313;28;20203;-48
2023/03/31 05:59:30;;;;;;;5.63;3.00;;;;;;;18.28;51.22;94500.53;5020173;28;20199;-47
2023/03/31 06:01:57;;;;;;;4.00;2.60;;;;;;;18.37;51.20;94493.41;5024970;28;20283;-47
2023/03/31 06:04:24;;;;;;;3.37;3.07;;;;;;;18.43;51.04;94499.59;5024547;28;20219;-46
2023/03/31 06:06:52;;;;;;;7.70;2.83;;;;;;;18.53;50.97;94507.84;5019846;28;20204;-48
2023/03/31 06:09:21;;;;;;;5.67;3.40;;;;;;;18.58;50.61;94507.28;5027655;28;20574;-48
2023/03/31 06:11:47;;;;;;;5.27;3.10;;;;;;;18.61;50.56;94512.88;5014567;28;20207;-47
2023/03/31 06:14:14;;;;;;;5.50;3.07;;;;;;;18.62;50.34;94511.09;5024507;28;20200;-47
2023/03/31 06:16:41;;;;;;;4.37;2.90;;;;;;;18.59;50.28;94501.09;5024117;28;20211;-47
2023/03/31 06:19:08;;;;;;;5.47;2.90;;;;;;;18.61;50.09;94501.69;5021956;28;20222;-46
2023/03/31 06:21:35;;;;;;;4.73;3.10;;;;;;;18.60;49.80;94500.09;5019513;28;20383;-51
2023/03/31 06:24:02;;;;;;;5.37;2.87;;;;;;;18.68;49.60;94498.16;5021111;28;20199;-50
2023/03/31 06:26:30;;;;;;;2.83;2.60;;;;;;;18.74;49.23;94491.44;5020057;28;20590;-47
2023/03/31 06:28:57;;;;;;;3.60;2.60;;;;;;;18.88;49.05;94497.47;5023742;28;20230;-48
2023/03/31 06:31:25;;;;;;;3.53;2.83;;;;;;;19.00;48.95;94493.34;5021174;28;20199;-48
2023/03/31 06:33:52;;;;;;;3.90;2.90;;;;;;;19.14;48.50;94494.97;5025523;28;20196;-46
2023/03/31 06:36:21;;;;;;;5.77;2.70;;;;;;;19.29;48.40;94497.41;5021019;28;20211;-48
2023/03/31 06:38:48;;;;;;;3.07;2.33;;;;;;;19.49;48.21;94497.44;5011571;28;20733;-47
2023/03/31 06:41:17;;;;;;;3.20;2.50;;;;;;;19.69;47.98;94511.28;5021249;28;20717;-46
2023/03/31 06:43:45;;;;;;;8.03;2.90;;;;;;;19.86;47.72;94503.91;5020255;28;20196;-48
2023/03/31 06:46:12;;;;;;;5.37;2.83;;;;;;;19.91;47.49;94483.34;5020936;28;20187;-48
2023/03/31 06:48:40;;;;;;;4.63;2.53;;;;;;;20.29;47.26;94517.28;5020841;28;20192;-47
2023/03/31 06:51:07;;;;;;;5.40;2.87;;;;;;;20.40;47.10;94510.66;5018010;28;20203;-49
2023/03/31 06:53:35;;;;;;;2.83;2.50;;;;;;;20.45;46.90;94512.63;5020283;28;20723;-47
2023/03/31 06:56:02;;;;;;;4.67;2.50;;;;;;;20.51;46.58;94504.88;5020240;28;20251;-46
2023/03/31 06:58:29;;;;;;;4.03;2.53;;;;;;;20.58;46.51;94512.63;5023169;28;20200;-48
2023/03/31 07:00:57;;;;;;;4.63;2.43;;;;;;;20.65;46.27;94515.22;5014107;28;20591;-47
2023/03/31 07:03:24;;;;;;;3.93;2.40;;;;;;;20.75;46.02;94511.19;5021546;28;20191;-47
2023/03/31 07:05:52;;;;;;;4.07;2.50;;;;;;;20.89;45.85;94505.94;5017628;28;20662;-48
2023/03/31 07:08:20;;;;;;;3.17;2.30;;;;;;;20.99;45.66;94478.50;5017680;28;20214;-47
2023/03/31 07:10:47;;;;;;;2.77;2.50;;;;;;;21.25;45.36;94476.78;5013517;28;20220;-50
2023/03/31 07:13:15;;;;;;;3.10;2.78;;;;;;;21.67;45.23;94472.72;5023938;28;20196;-48
2023/03/31 07:15:43;;;;;;;5.72;2.47;;;;;;;22.20;45.62;94455.91;5013842;28;20266;-48
2023/03/31 07:18:11;;;;;;;6.55;2.13;;;;;;;22.93;45.54;94465.56;5015131;28;20189;-48
2023/03/31 07:20:38;;;;;;;6.95;2.85;;;;;;;23.56;45.08;94462.50;5014819;28;20212;-50
2023/03/31 07:23:05;;;;;;;3.65;2.30;;;;;;;24.16;44.71;94459.75;5021094;28;20231;-48
2023/03/31 07:25:32;;;;;;;5.03;2.40;;;;;;;24.66;44.30;94450.66;5013331;28;20185;-49
2023/03/31 07:27:59;;;;;;;2.92;1.95;;;;;;;25.15;43.83;94451.88;5018664;28;20173;-47
2023/03/31 07:30:26;;;;;;;3.33;2.58;;;;;;;25.66;43.42;94457.22;5022056;28;20187;-50
2023/03/31 07:32:54;;;;;;;3.47;2.13;;;;;;;26.16;43.17;94466.91;5017602;28;20189;-48
2023/03/31 07:35:23;;;;;;;3.00;2.35;;;;;;;26.68;42.62;94464.75;5021993;28;20405;-47
2023/03/31 07:37:50;;;;;;;5.45;2.80;;;;;;;27.16;42.20;94459.81;5021004;28;20722;-50
2023/03/31 07:40:20;;;;;;;4.05;2.55;;;;;;;27.71;41.79;94453.53;5014582;28;20255;-51
2023/03/31 07:42:47;;;;;;;2.60;2.33;;;;;;;28.22;41.57;94443.41;5017443;28;20220;-50
2023/03/31 07:45:16;;;;;;;3.25;2.47;;;;;;;28.66;40.54;94448.41;5024903;28;20227;-48
2023/03/31 07:47:43;;;;;;;3.00;2.50;;;;;;;29.02;40.18;94453.84;5021374;28;20271;-48
2023/03/31 07:50:10;;;;;;;2.70;2.50;;;;;;;29.42;39.92;94455.81;5017733;28;20228;-51
2023/03/31 07:52:39;;;;;;;3.85;2.25;;;;;;;29.82;39.87;94447.16;5017427;28;20662;-51
2023/03/31 07:55:07;;;;;;;2.35;2.10;;;;;;;30.20;39.56;94453.75;5025647;28;20629;-49
2023/03/31 07:57:34;;;;;;;2.53;2.33;;;;;;;30.63;38.88;94461.31;5020274;28;20531;-48
2023/03/31 08:00:05;;;;;;;3.45;2.40;;;;;;;30.69;38.76;94415.34;5013517;28;20283;-49
2023/03/31 08:02:32;;;;;;;5.57;2.45;;;;;;;31.44;38.62;94452.28;5026111;28;20183;-50
2023/03/31 08:04:59;;;;;;;4.32;2.60;;;;;;;31.83;37.92;94448.84;5015363;28;20187;-50
2023/03/31 08:07:26;;;;;;;6.07;2.20;;;;;;;32.20;37.91;94440.31;5018813;28;20671;-57
2023/03/31 08:09:54;;;;;;;3.20;2.53;;;;;;;32.58;37.66;94443.16;5019643;28;20283;-49
2023/03/31 08:12:20;;;;;;;5.38;2.50;;;;;;;32.65;37.19;94433.81;5017096;28;20203;-49
2023/03/31 08:14:47;;;;;;;2.78;2.50;;;;;;;32.51;37.54;94434.75;5023120;28;20191;-52
2023/03/31 08:17:14;;;;;;;5.85;2.78;;;;;;;32.27;37.64;94435.50;5027615;28;20261;-55
2023/03/31 08:19:41;;;;;;;4.25;2.72;;;;;;;32.09;37.66;94434.34;5022426;28;20679;-55
2023/03/31 08:22:08;;;;;;;4.60;2.95;;;;;;;31.90;37.59;94434.25;5025119;28;20626;-54
2023/03/31 08:24:35;;;;;;;5.22;2.75;;;;;;;31.75;37.40;94429.06;5024244;28;20667;-48
2023/03/31 08:27:03;;;;;;;3.90;2.40;;;;;;;31.73;37.31;94431.97;5019329;28;20559;-49
2023/03/31 08:29:30;;;;;;;5.30;2.38;;;;;;;31.71;37.19;94426.19;5026551;28;20191;-49
2023/03/31 08:31:56;;;;;;;9.10;2.83;;;;;;;31.64;36.70;94422.25;5018817;28;20620;-51
2023/03/31 08:34:23;;;;;;;4.22;2.50;;;;;;;31.58;36.64;94426.81;5023629;28;20194;-49
2023/03/31 08:36:50;;;;;;;4.15;2.35;;;;;;;31.59;36.05;94420.44;5021207;28;20267;-48
2023/03/31 08:39:17;;;;;;;5.70;2.50;;;;;;;31.60;36.05;94423.88;5023132;28;20655;-49
2023/03/31 08:41:55;;;;;;;4.03;2.22;;;;;;;31.58;36.30;94424.16;5021208;28;20602;-48
2023/03/31 08:44:29;;;;;;;5.93;2.47;;;;;;;31.43;36.18;94424.25;5026694;28;20745;-49
2023/03/31 08:46:58;;;;;;;4.32;2.40;;;;;;;31.19;36.21;94419.63;5024185;28;20671;-49
2023/03/31 08:49:28;;;;;;;2.72;2.08;;;;;;;31.18;36.15;94433.91;5025445;28;20188;-47
2023/03/31 08:51:58;;;;;;;7.05;2.70;;;;;;;31.15;36.05;94434.44;5024148;28;20198;-48
2023/03/31 08:54:32;;;;;;;4.82;2.28;;;;;;;31.22;35.47;94432.31;5028354;28;20318;-48
2023/03/31 08:57:00;;;;;;;5.30;2.58;;;;;;;31.31;35.58;94424.63;5022951;28;20291;-48
2023/03/31 08:59:30;;;;;;;3.20;2.20;;;;;;;31.40;34.94;94424.81;5022810;28;20567;-55
2023/03/31 09:02:04;;;;;;;3.88;2.78;;;;;;;31.46;35.22;94413.16;5017134;28;20212;-48
2023/03/31 09:05:10;;;;;;;4.78;2.55;;;;;;;31.49;34.83;94407.31;5019368;28;20189;-49
2023/03/31 09:07:47;;;;;;;3.45;2.40;;;;;;;31.58;35.07;94396.94;4879585;29;20256;-48
2023/03/31 09:10:35;;;;;;;5.30;2.00;;;;;;;31.74;34.77;94398.41;4881717;29;20581;-48
2023/03/31 09:13:12;;;;;;;3.95;2.55;;;;;;;31.80;34.46;94405.22;4885835;29;20551;-46
2023/03/31 09:15:45;;;;;;;4.25;2.80;;;;;;;31.85;33.96;94401.75;4881513;29;20203;-53
2023/03/31 09:18:18;;;;;;;7.13;2.75;;;;;;;31.69;34.69;94404.53;4877039;29;20209;-47
2023/03/31 09:20:50;;;;;;;3.63;2.30;;;;;;;31.44;34.60;94394.13;4876182;29;20217;-48
2023/03/31 09:23:25;;;;;;;3.67;2.72;;;;;;;31.19;34.96;94397.72;4879894;29;20276;-47
2023/03/31 09:25:53;;;;;;;3.55;2.53;;;;;;;30.98;35.06;94397.03;4882186;29;20592;-49
2023/03/31 09:28:22;;;;;;;7.15;2.50;;;;;;;30.73;35.23;94397.94;4883717;29;20188;-48
2023/03/31 09:30:50;;;;;;;5.65;2.60;;;;;;;30.42;34.86;94382.19;4880364;29;20201;-49
2023/03/31 09:33:19;;;;;;;6.22;2.67;;;;;;;30.20;35.25;94390.44;4885710;29;20215;-49
2023/03/31 09:35:46;;;;;;;3.70;2.30;;;;;;;29.97;35.17;94391.78;4882547;29;20197;-50
2023/03/31 09:38:14;;;;;;;2.92;2.05;;;;;;;29.76;35.15;94403.41;4876210;29;20315;-48
2023/03/31 09:40:42;;;;;;;3.63;2.50;;;;;;;29.59;34.89;94400.25;4873250;29;20766;-48
2023/03/31 09:43:20;;;;;;;4.22;2.30;;;;;;;29.39;34.86;94385.19;4882476;29;20978;-52
2023/03/31 09:45:47;;;;;;;6.88;2.40;;;;;;;29.15;35.20;94388.31;5010449;28;20299;-50
2023/03/31 09:48:20;;;;;;;5.70;2.50;;;;;;;28.92;35.03;94378.22;5018655;28;20197;-48
2023/03/31 09:50:51;;;;;;;2.58;2.38;;;;;;;28.72;35.40;94379.75;5021317;28;20852;-49
2023/03/31 09:53:25;;;;;;;3.30;2.10;;;;;;;28.55;35.72;94371.28;5022175;28;20238;-50
2023/03/31 09:55:55;;;;;;;3.70;2.28;;;;;;;28.50;35.30;94381.78;5014565;28;20211;-48
2023/03/31 09:58:23;;;;;;;4.57;2.30;;;;;;;27.99;35.11;94313.13;5018601;28;20193;-48
2023/03/31 10:01:00;;;;;;;4.95;2.53;;;;;;;28.31;35.48;94376.13;5015293;28;20218;-48
2023/03/31 10:03:35;;;;;;;2.10;1.90;;;;;;;28.19;35.13;94372.91;5023490;28;20798;-48
2023/03/31 10:06:08;;;;;;;2.38;2.13;;;;;;;28.03;35.73;94366.00;5014933;28;20285;-47
2023/03/31 10:08:39;;;;;;;5.15;2.40;;;;;;;27.89;35.84;94355.13;5012808;28;20211;-48
2023/03/31 10:11:11;;;;;;;3.88;2.35;;;;;;;27.71;35.48;94353.66;5016707;28;20322;-48
2023/03/31 10:13:45;;;;;;;2.67;1.95;;;;;;;27.55;35.49;94362.47;5012785;28;20224;-48
2023/03/31 10:16:14;;;;;;;5.28;2.45;;;;;;;27.38;35.82;94355.53;5016852;28;20195;-49
2023/03/31 10:18:43;;;;;;;3.53;2.35;;;;;;;27.27;35.75;94346.78;5010707;28;20246;-48
2023/03/31 10:21:20;;;;;;;3.83;2.35;;;;;;;27.19;36.15;94349.06;5015143;28;20216;-48
2023/03/31 10:23:49;;;;;;;2.80;1.98;;;;;;;27.09;36.10;94339.28;5017548;28;20227;-49
2023/03/31 10:26:18;;;;;;;3.67;2.10;;;;;;;26.98;36.19;94346.22;5014006;28;20290;-49
2023/03/31 10:28:45;;;;;;;3.10;2.10;;;;;;;26.75;36.05;94313.19;5015192;28;20204;-50
2023/03/31 10:31:12;;;;;;;4.00;2.60;;;;;;;26.76;36.32;94334.97;5018804;28;20286;-49
2023/03/31 10:33:45;;;;;;;4.45;2.58;;;;;;;26.63;35.87;94333.53;5013779;28;20210;-48
2023/03/31 10:36:21;;;;;;;3.45;2.13;;;;;;;26.50;36.39;94333.91;5019552;28;20204;-48
2023/03/31 10:38:50;;;;;;;3.30;2.10;;;;;;;26.31;36.35;94314.28;5017805;28;20188;-51
2023/03/31 10:41:20;;;;;;;3.70;2.30;;;;;;;26.22;36.57;94319.94;5013728;28;20200;-51
2023/03/31 10:43:50;;;;;;;2.92;2.05;;;;;;;26.12;36.55;94319.00;5021775;28;20195;-54
2023/03/31 10:46:17;;;;;;;3.20;2.28;;;;;;;26.01;36.39;94328.59;5019357;28;20298;-48
2023/03/31 10:48:46;;;;;;;4.20;2.05;;;;;;;25.93;36.32;94315.91;5019671;28;20196;-47
2023/03/31 10:51:16;;;;;;;3.28;2.28;;;;;;;25.86;36.62;94315.28;5024747;28;20195;-48
2023/03/31 10:53:45;;;;;;;3.70;2.28;;;;;;;25.76;36.47;94315.91;5008615;28;20244;-49
2023/03/31 10:56:30;;;;;;;5.28;2.30;;;;;;;25.63;36.49;94311.78;5020024;28;20192;-50
2023/03/31 10:59:10;;;;;;;2.63;2.10;;;;;;;25.51;36.70;94301.41;5011355;28;20216;-48
2023/03/31 11:01:49;;;;;;;5.53;2.25;;;;;;;25.42;36.28;94305.47;5010777;28;20228;-48
2023/03/31 11:04:38;;;;;;;4.57;2.35;;;;;;;25.31;36.71;94302.94;5019044;28;20188;-51
2023/03/31 11:07:13;;;;;;;3.55;2.05;;;;;;;25.22;36.62;94303.34;5016239;28;20203;-50
2023/03/31 11:09:54;;;;;;;3.78;2.20;;;;;;;25.11;36.91;94292.94;5020357;28;20200;-48
2023/03/31 11:12:27;;;;;;;5.03;2.38;;;;;;;25.03;36.50;94297.50;5018782;28;20209;-49
2023/03/31 11:15:09;;;;;;;6.40;2.45;;;;;;;24.53;36.74;94217.19;5016016;28;20258;-48
2023/03/31 11:17:46;;;;;;;2.90;1.92;;;;;;;24.89;36.64;94285.75;5026264;28;20226;-50
2023/03/31 11:20:26;;;;;;;3.72;2.38;;;;;;;24.83;36.77;94286.72;5016205;28;20656;-50
2023/03/31 11:23:02;;;;;;;5.90;2.50;;;;;;;24.75;36.77;94280.03;5023189;28;20317;-48
2023/03/31 11:25:35;;;;;;;3.67;1.90;;;;;;;24.70;37.10;94276.56;5020806;28;20195;-48
2023/03/31 11:28:25;;;;;;;4.28;2.10;;;;;;;24.61;36.86;94262.25;5023357;28;20203;-49
2023/03/31 11:30:58;;;;;;;2.47;1.83;;;;;;;24.55;36.84;94258.75;5019881;28;20231;-48
2023/03/31 11:33:39;;;;;;;2.45;2.17;;;;;;;24.51;36.91;94255.81;5016528;28;20192;-50
2023/03/31 11:36:21;;;;;;;2.72;2.10;;;;;;;24.41;36.94;94252.25;5023127;28;20612;-49
2023/03/31 11:38:58;;;;;;;2.63;2.00;;;;;;;24.41;37.20;94260.88;5019279;28;20192;-49
2023/03/31 11:41:34;;;;;;;3.33;2.35;;;;;;;24.33;37.33;94250.75;5010275;28;20317;-50
2023/03/31 11:44:04;;;;;;;2.67;2.17;;;;;;;24.24;37.32;94245.13;5017291;28;20196;-48
2023/03/31 11:46:38;;;;;;;6.57;2.08;;;;;;;24.19;37.44;94246.84;5015657;28;20639;-48
2023/03/31 11:49:11;;;;;;;3.50;2.45;;;;;;;23.73;37.40;94181.44;5023745;28;20203;-50